Somis, CA (93066)

3:11 PM PST on November 20, 2014 (GMT -0800)
Somis | Change Station
CLOSE
Current Station
Personal Weather Station
Location: Somis, CA
Elevation: 391 ft
Nearby Weather Stations

Elev 391 ft 34.27 °N, 118.98 °W | Updated 9 minutes ago

Overcast
Overcast
64.4 °F
Feels Like 64.4 °F
N
1.1
Wind Variable Wind from SSE

Today
High -- | Low -- °F
--% Chance of Precip.
Yesterday
High -- | Low -- °F
Precip. -- in
6:33 AM 4:49 PM
Waning Crescent, 3% visible
Pressure 30.06 in
Visibility 10.0 miles
Clouds Mostly Cloudy 2000 ft
Mostly Cloudy 2800 ft
Overcast 4700 ft
Dew Point 64 °F
Humidity 98%
Rainfall 0.00 in
Snow Depth Not available.
UV 1 out of 12
Pollen 2.20 out of 12
Air Quality Not available.
Flu Activity Not available.
METAR KCMA 202155Z 24008KT 10SM BKN020 BKN028 OVC047 18/13 A3003 RMK AO2 SLP178 T01830133

More Conditions Fewer Conditions

Pressure 30.06 in
Visibility 10.0 miles
Clouds Mostly Cloudy 2000 ft
Mostly Cloudy 2800 ft
Overcast 4700 ft
Dew Point 64 °F
Humidity 98%
Rainfall 0.00 in
Snow Depth Not available.
UV 1 out of 12
Pollen 2.20 out of 12
Air Quality Not available.
Flu Activity Not available.
METAR KCMA 202155Z 24008KT 10SM BKN020 BKN028 OVC047 18/13 A3003 RMK AO2 SLP178 T01830133

More Conditions Fewer Conditions

10-Day Weather Forecast

Almanac

Astronomy

Nov. 20, 2014 Rise Set
Actual Time
Civil Twilight
Nautical Twilight
Astronomical Twilight
Moon
Length of Visible Light
Length of Day
Tomorrow will be .
, % of the Moon is Illuminated

Today's Extremes

State Highs State Lows

Community

WunderPhotos

Upload Photos

1,772,548 photos uploaded!

WunderBlogs® & News

Nearby

Air Quality

  Air Quality AQ Index Pollutant
Not available.

Snow Depth

Station Depth Elevation

Earthquake Activity

City Distance Mag. Time & Date
Minimum magnitude displayed is 2.5.

Coastal Water Temperatures

Place Temperature

Nearby Weather Stations